• Join FlightAware (Why Join?)
  • Login
  • US Flag 
03:20AM EDT


 

Airport Tracker/Info


-or-


 

Live Flight TrackerFlight Track Log ✈ THY964 ✈ 10-Sep-2013 ✈ LTBA / IST - LCEN / ECN

Flight Track Log - Related Links

Times and Time Zones

All times are in EDT time to prevent confusion due to time zone crossing. See the THY964 flight status page for this flight to view local times or setup timezone preferences in your user account.

Time Position Orientation Groundspeed Altitude Reporting Facility
EDT Latitude Longitude Course Direction KTS MPH feet Rate Location/Type
04:41PM 40.9760 28.8070 90° East 105 121  Level FlightAware
04:42PM 40.9940 28.8060 358° North 165 190 500 1,740 Climbing FlightAware
04:42PM 41.0090 28.8060 360° North 177 204 1,300 1,560 Climbing FlightAware
04:42PM 41.0240 28.8060 360° North 175 201 1,600 1,260 Climbing FlightAware
04:43PM 41.0440 28.8060 360° North 230 265 2,100 2,040 Climbing FlightAware
04:43PM 41.0740 28.8150 13° North 264 304 3,100 2,040 Climbing FlightAware
04:43PM 41.0800 28.8230 45° Northeast 274 315 3,300 1,620 Climbing FlightAware
04:43PM 41.0830 28.8290 56° Northeast 281 323 3,400 1,800 Climbing FlightAware
04:43PM 41.0860 28.8450 76° East 290 334 3,700 3,000 Climbing FlightAware
04:44PM 41.0900 28.8780 81° East 294 338 4,800 3,240 Climbing FlightAware
04:44PM 41.0960 28.9250 80° East 301 346 6,100 2,880 Climbing FlightAware
04:44PM 41.1010 28.9610 80° East 312 359 7,000 2,580 Climbing FlightAware
04:45PM 41.1060 28.9990 80° East 322 371 7,800 2,460 Climbing FlightAware
04:45PM 41.0920 29.0510 110° East 338 389 9,000 2,520 Climbing FlightAware
04:45PM 41.0870 29.0590 130° Southeast 338 389 9,200 2,760 Climbing FlightAware
04:45PM 41.0760 29.0680 148° Southeast 340 391 9,600 2,820 Climbing FlightAware
04:46PM 41.0260 29.1100 148° Southeast 346 398 11,400 2,820 Climbing FlightAware
04:47PM 40.9810 29.1490 147° Southeast 358 412 12,900 2,580 Climbing FlightAware
04:47PM 40.9270 29.1960 147° Southeast 374 430 14,500 2,580 Climbing FlightAware
04:48PM 40.8830 29.2340 147° Southeast 382 440 15,900 2,760 Climbing FlightAware
04:48PM 40.8270 29.2820 147° Southeast 390 449 17,600 2,640 Climbing FlightAware
04:49PM 40.7690 29.3320 147° Southeast 401 461 19,200 2,280 Climbing FlightAware
04:49PM 40.7290 29.3660 147° Southeast 413 475 20,000 1,800 Climbing FlightAware
04:50PM 40.6600 29.4250 147° Southeast 429 494 21,300 1,920 Climbing FlightAware
04:51PM 40.5820 29.4910 147° Southeast 448 516 22,800 2,100 Climbing FlightAware
04:51PM 40.5300 29.5360 147° Southeast 456 525 23,900 1,860 Climbing FlightAware
04:52PM 40.4600 29.5950 147° Southeast 463 533 25,100 1,740 Climbing FlightAware
04:53PM 40.3860 29.6420 154° Southeast 468 539 26,200 1,680 Climbing FlightAware
04:53PM 40.3160 29.6790 158° South 470 541 27,100 1,560 Climbing FlightAware
04:54PM 40.2470 29.7160 158° South 486 559 28,000 1,560 Climbing FlightAware
04:54PM 40.1710 29.7560 158° South 484 557 29,000 1,500 Climbing FlightAware
04:55PM 40.0870 29.8000 158° South 487 560 30,000 1,320 Climbing FlightAware
04:56PM 40.0070 29.8410 159° South 499 574 30,700 840 Climbing FlightAware
04:56PM 39.9350 29.8910 152° Southeast 500 575 31,000 240 Climbing FlightAware
04:57PM 39.8760 29.9570 139° Southeast 505 581 31,000 420 Level FlightAware
04:57PM 39.8100 30.0330 138° Southeast 503 579 31,500 540 Climbing FlightAware
04:58PM 39.7410 30.1150 138° Southeast 503 579 31,800 720 Climbing FlightAware
04:59PM 39.6770 30.1910 138° Southeast 505 581 32,500 540 Climbing FlightAware
04:59PM 39.6240 30.2540 138° Southeast 505 581 32,500 420 Level FlightAware
05:00PM 39.5550 30.3320 139° Southeast 506 582 33,000 420 Climbing FlightAware
05:01PM 39.4920 30.4040 139° Southeast 495 570 33,000 720 Level FlightAware
05:01PM 39.4040 30.4850 145° Southeast 484 557 34,000 780 Climbing FlightAware
05:02PM 39.3480 30.5350 145° Southeast 482 555 34,100 780 Climbing FlightAware
05:02PM 39.2710 30.5990 147° Southeast 485 558 34,900 660 Climbing FlightAware
05:03PM 39.1870 30.6700 147° Southeast 482 555 35,000 60 Climbing FlightAware
05:04PM 39.1190 30.7270 147° Southeast 481 554 35,000  Level FlightAware
05:04PM 39.0460 30.7880 147° Southeast 481 554 35,000  Level FlightAware
05:05PM 38.9690 30.8550 146° Southeast 481 554 35,000  Level FlightAware
05:06PM 38.9130 30.9040 146° Southeast 481 554 35,000  Level FlightAware
05:06PM 38.8560 30.9530 146° Southeast 481 554 35,000  Level FlightAware
05:07PM 38.7740 31.0170 149° Southeast 482 555 35,000  Level FlightAware
05:08PM 38.7120 31.0700 146° Southeast 482 555 35,000  Level FlightAware
05:08PM 38.6560 31.1180 146° Southeast 482 555 35,000  Level FlightAware
05:11PM 38.4201 31.2864 151° Southeast  Level Estimated
05:11PM 38.3260 31.3880 151° Southeast 476 548 35,000  Level FlightAware
05:12PM 38.2620 31.4400 147° Southeast 476 548 35,000  Level FlightAware
05:12PM 38.1860 31.5020 147° Southeast 475 547 35,000  Level FlightAware
05:13PM 38.1140 31.5610 147° Southeast 475 547 35,000  Level FlightAware
05:13PM 38.0590 31.6060 147° Southeast 476 548 35,000  Level FlightAware
05:14PM 37.9850 31.6670 147° Southeast 477 549 35,000  Level FlightAware
05:15PM 37.9170 31.7210 148° Southeast 477 549 35,000  Level FlightAware
05:15PM 37.8600 31.7680 147° Southeast 477 549 35,000  Level FlightAware
05:16PM 37.7950 31.8210 147° Southeast 477 549 35,000  Level FlightAware
05:16PM 37.7210 31.8810 147° Southeast 476 548 35,000  Level FlightAware
05:17PM 37.6650 31.9250 148° Southeast 474 545 35,000  Level FlightAware
05:17PM 37.6030 31.9760 147° Southeast 473 544 35,000  Level FlightAware
05:18PM 37.5270 32.0370 148° Southeast 465 535 35,000  Level FlightAware
05:19PM 37.4640 32.0860 148° Southeast 464 534 35,000  Level FlightAware
05:19PM 37.4080 32.1310 147° Southeast 463 533 35,000  Level FlightAware
05:20PM 37.3420 32.1840 147° Southeast 463 533 35,000  Level FlightAware
05:20PM 37.2720 32.2390 148° Southeast 462 532 35,000  Level FlightAware
05:21PM 37.2180 32.2830 147° Southeast 460 529 35,000  Level FlightAware
05:21PM 37.1570 32.3310 148° Southeast 460 529 35,000  Level FlightAware
05:22PM 37.0890 32.3850 148° Southeast 460 529 35,000  Level FlightAware
05:23PM 37.0140 32.4440 148° Southeast 460 529 35,000  Level FlightAware
05:23PM 36.9390 32.5030 148° Southeast 460 529 35,000 -300 Level FlightAware
05:24PM 36.8790 32.5500 148° Southeast 460 529 34,700 -960 Descending FlightAware
05:25PM 36.8140 32.6000 148° Southeast 461 531 33,900 -1,500 Descending FlightAware
05:25PM 36.7380 32.6600 148° Southeast 462 532 32,800 -1,680 Descending FlightAware
05:26PM 36.6770 32.7080 148° Southeast 473 544 31,800 -1,920 Descending FlightAware
05:26PM 36.5980 32.7670 149° Southeast 473 544 30,500 -2,220 Descending FlightAware
05:27PM 36.5070 32.8340 149° Southeast 455 524 28,600 -2,340 Descending FlightAware
05:28PM 36.4330 32.8890 149° Southeast 451 519 27,100 -2,340 Descending FlightAware
05:29PM 36.3710 32.9360 149° Southeast 438 504 25,700 -1,500 Descending FlightAware
05:29PM 36.3200 32.9750 148° Southeast 438 504 25,400 -2,520 Descending FlightAware
05:30PM 36.2540 33.0220 150° Southeast 452 520 22,900 -3,540 Descending FlightAware
05:30PM 36.1840 33.0730 150° Southeast 445 512 21,300 -1,680 Descending FlightAware
05:31PM 36.1270 33.1170 148° Southeast 435 501 20,800 -420 Descending FlightAware
05:32PM 36.0750 33.1570 148° Southeast 435 501 20,800 -2,460 Level FlightAware
05:32PM 36.0160 33.1980 151° Southeast 414 476 18,200 -2,760 Descending FlightAware
05:33PM 35.9350 33.2570 149° Southeast 411 473 17,000 -840 Descending FlightAware
05:33PM 35.8880 33.2920 149° Southeast 411 473 17,000 -2,220 Level FlightAware
05:34PM 35.8020 33.3550 149° Southeast 380 437 14,000 -2,220 Descending FlightAware
05:35PM 35.7590 33.3880 148° Southeast 380 437 14,000  Level FlightAware
05:35PM 35.7110 33.4250 148° Southeast 380 437 14,000 -2,640 Level FlightAware
05:36PM 35.6410 33.4710 152° Southeast 318 366 10,700 -3,060 Descending FlightAware
05:37PM 35.5970 33.5030 149° Southeast 285 328 10,400 -600 Descending FlightAware
05:37PM 35.5590 33.5300 150° Southeast 269 310 10,000 -900 Descending FlightAware
05:38PM 35.5360 33.5480 148° Southeast 270 311 9,600 -540 Descending FlightAware
05:38PM 35.5120 33.5670 147° Southeast 270 311 9,600  Level FlightAware
05:38PM 35.4910 33.5840 147° Southeast 270 311 9,600 -2,280 Level FlightAware
05:39PM 35.4610 33.6010 155° Southeast 260 299 7,900 -2,460 Descending FlightAware
05:39PM 35.4190 33.6320 149° Southeast 260 299 7,200 -720 Descending FlightAware
05:40PM 35.3970 33.6480 149° Southeast 260 299 7,200 -480 Level FlightAware
05:41PM 35.3590 33.6730 152° Southeast 243 280 6,700 -780 Descending FlightAware
05:43PM 35.1701 33.5094 215° Southwest  Level Estimated
05:44PM 35.1547 33.4961 215° Southwest  Level Estimated
05:45PM 35.1547 33.4961 22° Northeast  Level Estimated
05:45PM 35.1060 33.7110 22° Northeast 2,900  Level FlightAware
05:48PM 35.1547 33.4961 286° West  Level Estimated
05:49PM 35.1547 33.4961 22° Northeast  Level Estimated
05:50PM 35.1547 33.4961 22° Northeast  Level Estimated
05:51PM 35.1547 33.4961 22° Northeast  Level Estimated
05:52PM 35.1547 33.4961 22° Northeast  Level Estimated
05:53PM 35.1547 33.4961 22° Northeast  Level Estimated
05:54PM 35.1547 33.4961 22° Northeast  Level Estimated
05:55PM 35.1547 33.4961 22° Northeast  Level Estimated
05:56PM 35.1547 33.4961 22° Northeast  Level Estimated